sensor_id;sensor_type;location;lat;lon;timestamp;pressure;altitude;pressure_sealevel;temperature
74321;BMP280;62738;45.772;4.804;2023-07-31T00:02:15;100011.88;;;21.20
74321;BMP280;62738;45.772;4.804;2023-07-31T00:04:42;100011.25;;;21.21
74321;BMP280;62738;45.772;4.804;2023-07-31T00:07:09;100002.84;;;21.23
74321;BMP280;62738;45.772;4.804;2023-07-31T00:09:36;100003.22;;;21.31
74321;BMP280;62738;45.772;4.804;2023-07-31T00:12:03;100007.13;;;21.24
74321;BMP280;62738;45.772;4.804;2023-07-31T00:14:29;99998.13;;;21.28
74321;BMP280;62738;45.772;4.804;2023-07-31T00:16:56;100005.13;;;21.42
74321;BMP280;62738;45.772;4.804;2023-07-31T00:19:23;99997.91;;;21.55
74321;BMP280;62738;45.772;4.804;2023-07-31T00:21:49;99999.28;;;21.54
74321;BMP280;62738;45.772;4.804;2023-07-31T00:24:16;99995.44;;;21.48
74321;BMP280;62738;45.772;4.804;2023-07-31T00:26:43;99998.94;;;21.46
74321;BMP280;62738;45.772;4.804;2023-07-31T00:29:09;99999.00;;;21.48
74321;BMP280;62738;45.772;4.804;2023-07-31T00:31:36;99982.59;;;21.60
74321;BMP280;62738;45.772;4.804;2023-07-31T00:34:03;99983.97;;;21.59
74321;BMP280;62738;45.772;4.804;2023-07-31T00:36:29;99978.34;;;21.77
74321;BMP280;62738;45.772;4.804;2023-07-31T00:38:56;99980.19;;;21.70
74321;BMP280;62738;45.772;4.804;2023-07-31T00:41:23;99982.59;;;21.60
74321;BMP280;62738;45.772;4.804;2023-07-31T00:43:49;99980.97;;;21.55
74321;BMP280;62738;45.772;4.804;2023-07-31T00:46:16;99980.81;;;21.51
74321;BMP280;62738;45.772;4.804;2023-07-31T00:48:43;99971.69;;;21.53
74321;BMP280;62738;45.772;4.804;2023-07-31T00:51:10;99960.44;;;21.70
74321;BMP280;62738;45.772;4.804;2023-07-31T00:53:37;99960.13;;;21.80
74321;BMP280;62738;45.772;4.804;2023-07-31T00:56:06;99970.16;;;21.50
74321;BMP280;62738;45.772;4.804;2023-07-31T00:58:33;99963.16;;;21.35
74321;BMP280;62738;45.772;4.804;2023-07-31T01:03:35;99961.94;;;21.40
74321;BMP280;62738;45.772;4.804;2023-07-31T01:06:14;99956.97;;;21.38
74321;BMP280;62738;45.772;4.804;2023-07-31T01:08:54;99970.28;;;21.20
74321;BMP280;62738;45.772;4.804;2023-07-31T01:11:27;99955.44;;;21.20
74321;BMP280;62738;45.772;4.804;2023-07-31T01:13:55;99952.34;;;21.14
74321;BMP280;62738;45.772;4.804;2023-07-31T01:16:23;99964.06;;;21.24
74321;BMP280;62738;45.772;4.804;2023-07-31T01:18:50;99961.56;;;20.99
74321;BMP280;62738;45.772;4.804;2023-07-31T01:26:41;99942.41;;;21.13
74321;BMP280;62738;45.772;4.804;2023-07-31T01:29:18;99941.69;;;21.12
74321;BMP280;62738;45.772;4.804;2023-07-31T01:31:48;99939.78;;;21.17
74321;BMP280;62738;45.772;4.804;2023-07-31T01:34:17;99933.13;;;21.26
74321;BMP280;62738;45.772;4.804;2023-07-31T01:36:44;99934.78;;;21.31
74321;BMP280;62738;45.772;4.804;2023-07-31T01:39:11;99936.03;;;21.28
74321;BMP280;62738;45.772;4.804;2023-07-31T01:41:42;99935.34;;;20.96
74321;BMP280;62738;45.772;4.804;2023-07-31T01:44:09;99926.63;;;20.90
74321;BMP280;62738;45.772;4.804;2023-07-31T01:46:36;99929.06;;;20.82
74321;BMP280;62738;45.772;4.804;2023-07-31T01:49:03;99930.25;;;20.77
74321;BMP280;62738;45.772;4.804;2023-07-31T01:51:32;99922.03;;;20.83
74321;BMP280;62738;45.772;4.804;2023-07-31T01:54:02;99918.78;;;20.88
74321;BMP280;62738;45.772;4.804;2023-07-31T01:56:28;99907.06;;;20.94
74321;BMP280;62738;45.772;4.804;2023-07-31T01:58:55;99915.31;;;21.06
74321;BMP280;62738;45.772;4.804;2023-07-31T02:01:22;99919.03;;;21.10
74321;BMP280;62738;45.772;4.804;2023-07-31T02:03:48;99920.88;;;21.04
74321;BMP280;62738;45.772;4.804;2023-07-31T02:06:15;99913.16;;;20.88
74321;BMP280;62738;45.772;4.804;2023-07-31T02:08:42;99908.25;;;20.73
74321;BMP280;62738;45.772;4.804;2023-07-31T02:11:09;99916.16;;;20.61
74321;BMP280;62738;45.772;4.804;2023-07-31T02:13:35;99912.13;;;20.66
74321;BMP280;62738;45.772;4.804;2023-07-31T02:16:02;99902.22;;;20.81
74321;BMP280;62738;45.772;4.804;2023-07-31T02:18:29;99906.97;;;20.61
74321;BMP280;62738;45.772;4.804;2023-07-31T02:20:55;99910.31;;;20.57
74321;BMP280;62738;45.772;4.804;2023-07-31T02:23:22;99909.09;;;20.31
74321;BMP280;62738;45.772;4.804;2023-07-31T02:25:49;99913.03;;;20.10
74321;BMP280;62738;45.772;4.804;2023-07-31T02:28:16;99911.72;;;19.98
74321;BMP280;62738;45.772;4.804;2023-07-31T02:30:46;99915.28;;;19.84
74321;BMP280;62738;45.772;4.804;2023-07-31T02:33:14;99909.41;;;19.94
74321;BMP280;62738;45.772;4.804;2023-07-31T02:35:40;99924.13;;;19.92
74321;BMP280;62738;45.772;4.804;2023-07-31T02:38:07;99907.84;;;20.05
74321;BMP280;62738;45.772;4.804;2023-07-31T02:40:34;99910.84;;;20.09
74321;BMP280;62738;45.772;4.804;2023-07-31T02:43:00;99912.31;;;20.10
74321;BMP280;62738;45.772;4.804;2023-07-31T02:45:27;99915.22;;;20.12
74321;BMP280;62738;45.772;4.804;2023-07-31T02:47:54;99921.31;;;20.22
74321;BMP280;62738;45.772;4.804;2023-07-31T02:50:24;99923.47;;;20.37
74321;BMP280;62738;45.772;4.804;2023-07-31T02:52:50;99922.22;;;20.40
74321;BMP280;62738;45.772;4.804;2023-07-31T02:55:17;99914.56;;;20.42
74321;BMP280;62738;45.772;4.804;2023-07-31T02:57:43;99910.44;;;20.45
74321;BMP280;62738;45.772;4.804;2023-07-31T03:00:10;99904.75;;;20.43
74321;BMP280;62738;45.772;4.804;2023-07-31T03:02:37;99909.84;;;20.47
74321;BMP280;62738;45.772;4.804;2023-07-31T03:05:04;99912.72;;;20.49
74321;BMP280;62738;45.772;4.804;2023-07-31T03:07:30;99909.22;;;20.49
74321;BMP280;62738;45.772;4.804;2023-07-31T03:09:57;99908.47;;;20.48
74321;BMP280;62738;45.772;4.804;2023-07-31T03:12:24;99905.84;;;20.52
74321;BMP280;62738;45.772;4.804;2023-07-31T03:14:51;99914.38;;;20.54
74321;BMP280;62738;45.772;4.804;2023-07-31T03:17:17;99910.22;;;20.55
74321;BMP280;62738;45.772;4.804;2023-07-31T03:19:44;99904.56;;;20.55
74321;BMP280;62738;45.772;4.804;2023-07-31T03:22:11;99905.06;;;20.65
74321;BMP280;62738;45.772;4.804;2023-07-31T03:24:37;99897.66;;;20.58
74321;BMP280;62738;45.772;4.804;2023-07-31T03:27:04;99902.31;;;20.52
74321;BMP280;62738;45.772;4.804;2023-07-31T03:29:31;99894.56;;;20.52
74321;BMP280;62738;45.772;4.804;2023-07-31T03:31:58;99901.13;;;20.57
74321;BMP280;62738;45.772;4.804;2023-07-31T03:34:25;99896.03;;;20.53
74321;BMP280;62738;45.772;4.804;2023-07-31T03:36:52;99899.94;;;20.62
74321;BMP280;62738;45.772;4.804;2023-07-31T03:39:18;99905.47;;;20.75
74321;BMP280;62738;45.772;4.804;2023-07-31T03:41:45;99912.94;;;20.53
74321;BMP280;62738;45.772;4.804;2023-07-31T03:44:12;99913.38;;;20.48
74321;BMP280;62738;45.772;4.804;2023-07-31T03:46:39;99915.22;;;20.12
74321;BMP280;62738;45.772;4.804;2023-07-31T03:49:05;99904.84;;;19.87
74321;BMP280;62738;45.772;4.804;2023-07-31T03:51:32;99907.66;;;19.87
74321;BMP280;62738;45.772;4.804;2023-07-31T03:53:59;99916.22;;;19.89
74321;BMP280;62738;45.772;4.804;2023-07-31T03:56:26;99923.38;;;20.06
74321;BMP280;62738;45.772;4.804;2023-07-31T03:58:53;99920.66;;;20.08
74321;BMP280;62738;45.772;4.804;2023-07-31T04:01:19;99924.16;;;20.22
74321;BMP280;62738;45.772;4.804;2023-07-31T04:03:46;99920.03;;;20.09
74321;BMP280;62738;45.772;4.804;2023-07-31T04:06:13;99915.31;;;20.14
74321;BMP280;62738;45.772;4.804;2023-07-31T04:08:40;99920.84;;;20.12
74321;BMP280;62738;45.772;4.804;2023-07-31T04:11:06;99929.34;;;20.27
74321;BMP280;62738;45.772;4.804;2023-07-31T04:13:33;99931.91;;;20.08
74321;BMP280;62738;45.772;4.804;2023-07-31T04:16:00;99929.00;;;20.06
74321;BMP280;62738;45.772;4.804;2023-07-31T04:18:26;99920.66;;;20.08
74321;BMP280;62738;45.772;4.804;2023-07-31T04:20:53;99922.47;;;20.17
74321;BMP280;62738;45.772;4.804;2023-07-31T04:23:20;99927.94;;;20.13
74321;BMP280;62738;45.772;4.804;2023-07-31T04:25:47;99936.22;;;19.95
74321;BMP280;62738;45.772;4.804;2023-07-31T04:28:15;99935.19;;;19.88
74321;BMP280;62738;45.772;4.804;2023-07-31T04:30:43;99939.75;;;19.95
74321;BMP280;62738;45.772;4.804;2023-07-31T04:33:09;99910.78;;;19.93
74321;BMP280;62738;45.772;4.804;2023-07-31T04:35:36;99922.78;;;19.93
74321;BMP280;62738;45.772;4.804;2023-07-31T04:38:03;99932.56;;;20.06
74321;BMP280;62738;45.772;4.804;2023-07-31T04:40:30;99926.19;;;20.06
74321;BMP280;62738;45.772;4.804;2023-07-31T04:42:56;99925.75;;;20.11
74321;BMP280;62738;45.772;4.804;2023-07-31T04:45:23;99917.22;;;20.09
74321;BMP280;62738;45.772;4.804;2023-07-31T04:47:50;99920.28;;;20.15
74321;BMP280;62738;45.772;4.804;2023-07-31T04:50:16;99918.31;;;20.18
74321;BMP280;62738;45.772;4.804;2023-07-31T04:52:43;99921.50;;;20.10
74321;BMP280;62738;45.772;4.804;2023-07-31T04:55:10;99922.78;;;20.23
74321;BMP280;62738;45.772;4.804;2023-07-31T04:57:36;99919.97;;;20.23
74321;BMP280;62738;45.772;4.804;2023-07-31T05:00:03;99923.22;;;20.17
74321;BMP280;62738;45.772;4.804;2023-07-31T05:02:30;99922.47;;;20.17
74321;BMP280;62738;45.772;4.804;2023-07-31T05:04:56;99921.91;;;20.34
74321;BMP280;62738;45.772;4.804;2023-07-31T05:07:24;99930.16;;;20.30
74321;BMP280;62738;45.772;4.804;2023-07-31T05:09:50;99918.19;;;20.16
74321;BMP280;62738;45.772;4.804;2023-07-31T05:12:17;99930.56;;;20.09
74321;BMP280;62738;45.772;4.804;2023-07-31T05:14:44;99931.91;;;20.08
74321;BMP280;62738;45.772;4.804;2023-07-31T05:17:10;99930.50;;;19.93
74321;BMP280;62738;45.772;4.804;2023-07-31T05:19:37;99932.97;;;20.01
74321;BMP280;62738;45.772;4.804;2023-07-31T05:22:04;99923.81;;;19.86
74321;BMP280;62738;45.772;4.804;2023-07-31T05:24:30;99916.94;;;19.89
74321;BMP280;62738;45.772;4.804;2023-07-31T05:26:57;99914.41;;;19.95
74321;BMP280;62738;45.772;4.804;2023-07-31T05:29:24;99914.88;;;20.19
74321;BMP280;62738;45.772;4.804;2023-07-31T05:31:50;99906.94;;;20.16
74321;BMP280;62738;45.772;4.804;2023-07-31T05:34:17;99901.81;;;20.26
74321;BMP280;62738;45.772;4.804;2023-07-31T05:36:44;99899.28;;;20.32
74321;BMP280;62738;45.772;4.804;2023-07-31T05:39:10;99902.63;;;20.28
74321;BMP280;62738;45.772;4.804;2023-07-31T05:41:37;99909.75;;;20.16
74321;BMP280;62738;45.772;4.804;2023-07-31T05:44:04;99898.25;;;20.25
74321;BMP280;62738;45.772;4.804;2023-07-31T05:46:30;99897.09;;;20.46
74321;BMP280;62738;45.772;4.804;2023-07-31T05:48:58;99891.66;;;20.66
74321;BMP280;62738;45.772;4.804;2023-07-31T05:51:27;99893.84;;;20.36
74321;BMP280;62738;45.772;4.804;2023-07-31T05:53:54;99890.03;;;20.16
74321;BMP280;62738;45.772;4.804;2023-07-31T05:56:21;99894.16;;;20.13
74321;BMP280;62738;45.772;4.804;2023-07-31T05:58:47;99888.13;;;20.20
74321;BMP280;62738;45.772;4.804;2023-07-31T06:01:16;99889.06;;;20.25
74321;BMP280;62738;45.772;4.804;2023-07-31T06:03:43;99892.38;;;20.35
74321;BMP280;62738;45.772;4.804;2023-07-31T06:06:10;99894.75;;;20.56
74321;BMP280;62738;45.772;4.804;2023-07-31T06:08:37;99886.13;;;20.68
74321;BMP280;62738;45.772;4.804;2023-07-31T06:11:04;99887.84;;;20.90
74321;BMP280;62738;45.772;4.804;2023-07-31T06:13:31;99896.25;;;20.73
74321;BMP280;62738;45.772;4.804;2023-07-31T06:15:58;99887.66;;;20.86
74321;BMP280;62738;45.772;4.804;2023-07-31T06:18:26;99894.75;;;20.87
74321;BMP280;62738;45.772;4.804;2023-07-31T06:20:52;99899.19;;;21.08
74321;BMP280;62738;45.772;4.804;2023-07-31T06:23:20;99897.09;;;21.09
74321;BMP280;62738;45.772;4.804;2023-07-31T06:25:47;99903.75;;;21.31
74321;BMP280;62738;45.772;4.804;2023-07-31T06:28:14;99900.13;;;21.46
74321;BMP280;62738;45.772;4.804;2023-07-31T06:30:40;99888.06;;;21.28
74321;BMP280;62738;45.772;4.804;2023-07-31T06:33:07;99893.66;;;21.43
74321;BMP280;62738;45.772;4.804;2023-07-31T06:35:34;99899.47;;;21.48
74321;BMP280;62738;45.772;4.804;2023-07-31T06:38:00;99897.00;;;21.73
74321;BMP280;62738;45.772;4.804;2023-07-31T06:40:29;99892.91;;;21.59
74321;BMP280;62738;45.772;4.804;2023-07-31T06:42:56;99898.22;;;21.68
74321;BMP280;62738;45.772;4.804;2023-07-31T06:45:22;99896.53;;;21.79
74321;BMP280;62738;45.772;4.804;2023-07-31T06:47:49;99900.00;;;21.77
74321;BMP280;62738;45.772;4.804;2023-07-31T06:50:16;99901.38;;;21.76
74321;BMP280;62738;45.772;4.804;2023-07-31T06:52:43;99902.91;;;21.97
74321;BMP280;62738;45.772;4.804;2023-07-31T06:55:18;99900.41;;;22.23
74321;BMP280;62738;45.772;4.804;2023-07-31T06:57:50;99902.78;;;22.30
74321;BMP280;62738;45.772;4.804;2023-07-31T07:00:18;99896.50;;;22.32
74321;BMP280;62738;45.772;4.804;2023-07-31T07:02:46;99887.53;;;22.37
74321;BMP280;62738;45.772;4.804;2023-07-31T07:05:16;99877.34;;;22.48
74321;BMP280;62738;45.772;4.804;2023-07-31T07:07:43;99876.53;;;22.65
74321;BMP280;62738;45.772;4.804;2023-07-31T07:10:10;99876.84;;;22.73
74321;BMP280;62738;45.772;4.804;2023-07-31T07:12:37;99867.47;;;22.88
74321;BMP280;62738;45.772;4.804;2023-07-31T07:15:04;99862.66;;;23.13
74321;BMP280;62738;45.772;4.804;2023-07-31T07:17:31;99863.41;;;23.13
74321;BMP280;62738;45.772;4.804;2023-07-31T07:19:58;99867.28;;;23.24
74321;BMP280;62738;45.772;4.804;2023-07-31T07:22:25;99868.41;;;23.36
74321;BMP280;62738;45.772;4.804;2023-07-31T07:24:54;99861.09;;;23.51
74321;BMP280;62738;45.772;4.804;2023-07-31T07:27:21;99862.84;;;23.60
74321;BMP280;62738;45.772;4.804;2023-07-31T07:29:50;99861.06;;;23.71
74321;BMP280;62738;45.772;4.804;2023-07-31T07:32:17;99857.88;;;23.61
74321;BMP280;62738;45.772;4.804;2023-07-31T07:34:45;99863.78;;;23.25
74321;BMP280;62738;45.772;4.804;2023-07-31T07:37:11;99858.91;;;23.28
74321;BMP280;62738;45.772;4.804;2023-07-31T07:39:38;99852.50;;;23.47
74321;BMP280;62738;45.772;4.804;2023-07-31T07:42:05;99870.31;;;23.51
74321;BMP280;62738;45.772;4.804;2023-07-31T07:44:31;99857.97;;;23.86
74321;BMP280;62738;45.772;4.804;2023-07-31T07:46:58;99867.94;;;23.87
74321;BMP280;62738;45.772;4.804;2023-07-31T07:49:25;99861.06;;;23.94
74321;BMP280;62738;45.772;4.804;2023-07-31T07:51:51;99855.16;;;24.10
74321;BMP280;62738;45.772;4.804;2023-07-31T07:54:18;99855.50;;;24.22
74321;BMP280;62738;45.772;4.804;2023-07-31T07:56:45;99852.72;;;24.48
74321;BMP280;62738;45.772;4.804;2023-07-31T07:59:12;99856.44;;;24.54
74321;BMP280;62738;45.772;4.804;2023-07-31T08:01:38;99855.94;;;24.62
74321;BMP280;62738;45.772;4.804;2023-07-31T08:04:05;99848.53;;;24.77
74321;BMP280;62738;45.772;4.804;2023-07-31T08:06:32;99848.00;;;24.84
74321;BMP280;62738;45.772;4.804;2023-07-31T08:08:59;99852.75;;;24.76
74321;BMP280;62738;45.772;4.804;2023-07-31T08:11:26;99845.28;;;24.88
74321;BMP280;62738;45.772;4.804;2023-07-31T08:13:52;99842.47;;;24.88
74321;BMP280;62738;45.772;4.804;2023-07-31T08:16:19;99837.91;;;25.05
74321;BMP280;62738;45.772;4.804;2023-07-31T08:18:46;99842.47;;;25.16
74321;BMP280;62738;45.772;4.804;2023-07-31T08:21:13;99835.03;;;25.33
74321;BMP280;62738;45.772;4.804;2023-07-31T08:23:40;99827.34;;;25.07
74321;BMP280;62738;45.772;4.804;2023-07-31T08:26:07;99823.97;;;25.15
74321;BMP280;62738;45.772;4.804;2023-07-31T08:28:33;99827.38;;;25.09
74321;BMP280;62738;45.772;4.804;2023-07-31T08:31:02;99827.50;;;25.13
74321;BMP280;62738;45.772;4.804;2023-07-31T08:33:28;99828.47;;;25.24
74321;BMP280;62738;45.772;4.804;2023-07-31T08:35:55;99831.69;;;25.40
74321;BMP280;62738;45.772;4.804;2023-07-31T08:38:21;99823.94;;;25.43
74321;BMP280;62738;45.772;4.804;2023-07-31T08:40:51;99818.47;;;25.51
74321;BMP280;62738;45.772;4.804;2023-07-31T08:43:18;99819.22;;;25.53
74321;BMP280;62738;45.772;4.804;2023-07-31T08:45:47;99809.97;;;25.53
74321;BMP280;62738;45.772;4.804;2023-07-31T08:48:15;99807.66;;;25.16
74321;BMP280;62738;45.772;4.804;2023-07-31T08:50:42;99814.13;;;25.18
74321;BMP280;62738;45.772;4.804;2023-07-31T08:53:09;99808.34;;;24.86
74321;BMP280;62738;45.772;4.804;2023-07-31T08:55:36;99803.22;;;25.08
74321;BMP280;62738;45.772;4.804;2023-07-31T08:58:04;99792.56;;;25.07
74321;BMP280;62738;45.772;4.804;2023-07-31T09:00:32;99796.88;;;25.10
74321;BMP280;62738;45.772;4.804;2023-07-31T09:03:03;99799.84;;;24.86
74321;BMP280;62738;45.772;4.804;2023-07-31T09:05:36;99803.78;;;24.75
74321;BMP280;62738;45.772;4.804;2023-07-31T09:08:04;99799.88;;;24.88
74321;BMP280;62738;45.772;4.804;2023-07-31T09:10:31;99794.50;;;25.28
74321;BMP280;62738;45.772;4.804;2023-07-31T09:12:58;99797.06;;;25.48
74321;BMP280;62738;45.772;4.804;2023-07-31T09:15:25;99792.38;;;25.60
74321;BMP280;62738;45.772;4.804;2023-07-31T09:18:04;99798.25;;;25.68
74321;BMP280;62738;45.772;4.804;2023-07-31T09:20:32;99788.59;;;25.82
74321;BMP280;62738;45.772;4.804;2023-07-31T09:23:10;99776.81;;;25.97
74321;BMP280;62738;45.772;4.804;2023-07-31T09:25:39;99773.88;;;25.93
74321;BMP280;62738;45.772;4.804;2023-07-31T09:28:07;99771.25;;;25.69
74321;BMP280;62738;45.772;4.804;2023-07-31T09:30:48;99769.81;;;25.37
74321;BMP280;62738;45.772;4.804;2023-07-31T09:33:16;99762.16;;;25.43
74321;BMP280;62738;45.772;4.804;2023-07-31T09:35:43;99763.63;;;25.44
74321;BMP280;62738;45.772;4.804;2023-07-31T09:38:12;99758.59;;;25.43
74321;BMP280;62738;45.772;4.804;2023-07-31T09:40:42;99759.31;;;25.75
74321;BMP280;62738;45.772;4.804;2023-07-31T09:43:13;99769.78;;;26.00
74321;BMP280;62738;45.772;4.804;2023-07-31T09:45:44;99746.41;;;26.06
74321;BMP280;62738;45.772;4.804;2023-07-31T09:48:16;99743.28;;;26.28
74321;BMP280;62738;45.772;4.804;2023-07-31T09:50:48;99746.47;;;26.46
74321;BMP280;62738;45.772;4.804;2023-07-31T09:53:16;99746.84;;;26.68
74321;BMP280;62738;45.772;4.804;2023-07-31T09:55:43;99732.31;;;26.50
74321;BMP280;62738;45.772;4.804;2023-07-31T09:58:12;99735.06;;;26.44
74321;BMP280;62738;45.772;4.804;2023-07-31T10:00:38;99734.81;;;26.32
74321;BMP280;62738;45.772;4.804;2023-07-31T10:03:09;99725.91;;;26.49
74321;BMP280;62738;45.772;4.804;2023-07-31T10:05:40;99721.13;;;26.62
74321;BMP280;62738;45.772;4.804;2023-07-31T10:08:07;99719.91;;;26.73
74321;BMP280;62738;45.772;4.804;2023-07-31T10:10:41;99722.94;;;26.87
74321;BMP280;62738;45.772;4.804;2023-07-31T10:13:09;99720.34;;;27.03
74321;BMP280;62738;45.772;4.804;2023-07-31T10:15:35;99714.78;;;27.13
74321;BMP280;62738;45.772;4.804;2023-07-31T10:18:05;99724.16;;;27.22
74321;BMP280;62738;45.772;4.804;2023-07-31T10:20:33;99716.53;;;27.34
74321;BMP280;62738;45.772;4.804;2023-07-31T10:23:01;99710.28;;;27.48
74321;BMP280;62738;45.772;4.804;2023-07-31T10:25:28;99708.38;;;27.67
74321;BMP280;62738;45.772;4.804;2023-07-31T10:27:56;99701.31;;;27.72
74321;BMP280;62738;45.772;4.804;2023-07-31T10:30:27;99703.47;;;27.75
74321;BMP280;62738;45.772;4.804;2023-07-31T10:32:54;99700.75;;;27.87
74321;BMP280;62738;45.772;4.804;2023-07-31T10:35:22;99701.72;;;27.48
74321;BMP280;62738;45.772;4.804;2023-07-31T10:37:52;99697.38;;;27.41
74321;BMP280;62738;45.772;4.804;2023-07-31T10:40:28;99689.75;;;27.60
74321;BMP280;62738;45.772;4.804;2023-07-31T10:42:56;99686.81;;;27.52
74321;BMP280;62738;45.772;4.804;2023-07-31T10:45:39;99677.59;;;27.55
74321;BMP280;62738;45.772;4.804;2023-07-31T10:48:15;99684.88;;;27.68
74321;BMP280;62738;45.772;4.804;2023-07-31T10:50:50;99687.13;;;27.80
74321;BMP280;62738;45.772;4.804;2023-07-31T10:53:25;99686.56;;;27.91
74321;BMP280;62738;45.772;4.804;2023-07-31T10:55:52;99682.38;;;27.99
74321;BMP280;62738;45.772;4.804;2023-07-31T10:58:20;99672.53;;;28.16
74321;BMP280;62738;45.772;4.804;2023-07-31T11:00:55;99673.31;;;28.24
74321;BMP280;62738;45.772;4.804;2023-07-31T11:03:26;99671.97;;;28.35
74321;BMP280;62738;45.772;4.804;2023-07-31T11:05:59;99669.88;;;28.42
74321;BMP280;62738;45.772;4.804;2023-07-31T11:08:35;99664.91;;;28.42
74321;BMP280;62738;45.772;4.804;2023-07-31T11:13:41;99664.91;;;28.42
74321;BMP280;62738;45.772;4.804;2023-07-31T11:16:10;99658.50;;;28.46
74321;BMP280;62738;45.772;4.804;2023-07-31T11:18:41;99653.56;;;28.54
74321;BMP280;62738;45.772;4.804;2023-07-31T11:21:12;99649.31;;;28.55
74321;BMP280;62738;45.772;4.804;2023-07-31T11:23:39;99650.03;;;28.56
74321;BMP280;62738;45.772;4.804;2023-07-31T11:26:06;99646.47;;;28.58
74321;BMP280;62738;45.772;4.804;2023-07-31T11:28:34;99637.13;;;28.51
74321;BMP280;62738;45.772;4.804;2023-07-31T11:31:02;99638.66;;;28.64
74321;BMP280;62738;45.772;4.804;2023-07-31T11:33:29;99630.94;;;28.87
74321;BMP280;62738;45.772;4.804;2023-07-31T11:35:56;99613.88;;;29.03
74321;BMP280;62738;45.772;4.804;2023-07-31T11:38:28;99611.75;;;29.11
74321;BMP280;62738;45.772;4.804;2023-07-31T11:41:04;99609.63;;;29.12
74321;BMP280;62738;45.772;4.804;2023-07-31T11:43:31;99613.22;;;29.14
74321;BMP280;62738;45.772;4.804;2023-07-31T11:45:59;99605.34;;;29.25
74321;BMP280;62738;45.772;4.804;2023-07-31T11:48:31;99596.84;;;29.35
74321;BMP280;62738;45.772;4.804;2023-07-31T11:51:09;99598.22;;;29.28
74321;BMP280;62738;45.772;4.804;2023-07-31T11:53:44;99596.75;;;29.11
74321;BMP280;62738;45.772;4.804;2023-07-31T11:56:14;99589.53;;;28.98
74321;BMP280;62738;45.772;4.804;2023-07-31T11:58:43;99577.34;;;28.81
74321;BMP280;62738;45.772;4.804;2023-07-31T12:01:14;99579.41;;;28.65
74321;BMP280;62738;45.772;4.804;2023-07-31T12:03:44;99575.16;;;28.72
74321;BMP280;62738;45.772;4.804;2023-07-31T12:06:11;99580.22;;;28.81
74321;BMP280;62738;45.772;4.804;2023-07-31T12:08:38;99572.44;;;28.94
74321;BMP280;62738;45.772;4.804;2023-07-31T12:11:09;99560.31;;;29.03
74321;BMP280;62738;45.772;4.804;2023-07-31T12:13:36;99559.66;;;29.21
74321;BMP280;62738;45.772;4.804;2023-07-31T12:16:03;99562.56;;;29.51
74321;BMP280;62738;45.772;4.804;2023-07-31T12:18:36;99551.84;;;29.62
74321;BMP280;62738;45.772;4.804;2023-07-31T12:21:05;99539.69;;;29.59
74321;BMP280;62738;45.772;4.804;2023-07-31T12:23:33;99539.00;;;29.73
74321;BMP280;62738;45.772;4.804;2023-07-31T12:28:40;99541.81;;;29.65
74321;BMP280;62738;45.772;4.804;2023-07-31T12:31:12;99532.56;;;29.50
74321;BMP280;62738;45.772;4.804;2023-07-31T12:33:40;99531.09;;;29.59
74321;BMP280;62738;45.772;4.804;2023-07-31T12:36:12;99523.25;;;29.66
74321;BMP280;62738;45.772;4.804;2023-07-31T12:38:40;99511.84;;;29.70
74321;BMP280;62738;45.772;4.804;2023-07-31T12:41:07;99517.50;;;29.94
74321;BMP280;62738;45.772;4.804;2023-07-31T12:43:35;99518.22;;;29.93
74321;BMP280;62738;45.772;4.804;2023-07-31T12:46:02;99511.78;;;29.94
74321;BMP280;62738;45.772;4.804;2023-07-31T12:48:29;99519.66;;;30.02
74321;BMP280;62738;45.772;4.804;2023-07-31T12:50:56;99508.16;;;30.26
74321;BMP280;62738;45.772;4.804;2023-07-31T12:53:23;99498.13;;;30.31
74321;BMP280;62738;45.772;4.804;2023-07-31T12:55:50;99496.56;;;30.62
74321;BMP280;62738;45.772;4.804;2023-07-31T12:58:16;99491.44;;;30.79
74321;BMP280;62738;45.772;4.804;2023-07-31T13:00:43;99488.84;;;30.20
74321;BMP280;62738;45.772;4.804;2023-07-31T13:03:10;99495.31;;;30.11
74321;BMP280;62738;45.772;4.804;2023-07-31T13:05:37;99493.22;;;29.71
74321;BMP280;62738;45.772;4.804;2023-07-31T13:08:04;99484.63;;;29.91
74321;BMP280;62738;45.772;4.804;2023-07-31T13:10:30;99483.19;;;29.86
74321;BMP280;62738;45.772;4.804;2023-07-31T13:12:57;99475.31;;;30.01
74321;BMP280;62738;45.772;4.804;2023-07-31T13:15:24;99479.59;;;30.10
74321;BMP280;62738;45.772;4.804;2023-07-31T13:17:50;99478.84;;;30.21
74321;BMP280;62738;45.772;4.804;2023-07-31T13:20:17;99470.91;;;30.44
74321;BMP280;62738;45.772;4.804;2023-07-31T13:22:44;99472.13;;;30.77
74321;BMP280;62738;45.772;4.804;2023-07-31T13:25:12;99469.88;;;30.92
74321;BMP280;62738;45.772;4.804;2023-07-31T13:27:39;99454.09;;;30.99
74321;BMP280;62738;45.772;4.804;2023-07-31T13:30:06;99462.66;;;31.05
74321;BMP280;62738;45.772;4.804;2023-07-31T13:32:33;99461.13;;;31.18
74321;BMP280;62738;45.772;4.804;2023-07-31T13:34:59;99456.06;;;31.23
74321;BMP280;62738;45.772;4.804;2023-07-31T13:37:26;99451.59;;;31.40
74321;BMP280;62738;45.772;4.804;2023-07-31T13:39:53;99447.97;;;31.49
74321;BMP280;62738;45.772;4.804;2023-07-31T13:42:19;99445.66;;;31.64
74321;BMP280;62738;45.772;4.804;2023-07-31T13:44:46;99441.19;;;31.77
74321;BMP280;62738;45.772;4.804;2023-07-31T13:47:13;99434.72;;;31.81
74321;BMP280;62738;45.772;4.804;2023-07-31T13:49:40;99430.25;;;31.96
74321;BMP280;62738;45.772;4.804;2023-07-31T13:52:08;99432.19;;;32.11
74321;BMP280;62738;45.772;4.804;2023-07-31T13:54:34;99435.78;;;32.14
74321;BMP280;62738;45.772;4.804;2023-07-31T13:57:02;99432.84;;;32.18
74321;BMP280;62738;45.772;4.804;2023-07-31T13:59:29;99429.31;;;32.13
74321;BMP280;62738;45.772;4.804;2023-07-31T14:01:55;99420.06;;;32.07
74321;BMP280;62738;45.772;4.804;2023-07-31T14:04:22;99417.06;;;32.19
74321;BMP280;62738;45.772;4.804;2023-07-31T14:06:49;99420.50;;;32.27
74321;BMP280;62738;45.772;4.804;2023-07-31T14:09:16;99424.88;;;32.22
74321;BMP280;62738;45.772;4.804;2023-07-31T14:11:44;99414.34;;;32.05
74321;BMP280;62738;45.772;4.804;2023-07-31T14:14:10;99407.94;;;32.00
74321;BMP280;62738;45.772;4.804;2023-07-31T14:16:37;99409.19;;;31.52
74321;BMP280;62738;45.772;4.804;2023-07-31T14:19:05;99406.41;;;31.44
74321;BMP280;62738;45.772;4.804;2023-07-31T14:21:32;99406.31;;;31.56
74321;BMP280;62738;45.772;4.804;2023-07-31T14:23:59;99404.59;;;31.80
74321;BMP280;62738;45.772;4.804;2023-07-31T14:26:25;99413.66;;;32.02